Glencoe, Missouri
Current Conditions -  °F | °C
As of 9:54 AM on Friday 24 Oct 2014 (Local Time) from KSUS Reporting Station
Broken Clouds Broken Clouds  
Wind Chill: 57°   Ceiling: 2100
Heat Index: 57°   Visibility: 8mi
Dew Point: 54°   Wind: 7mph
Humidity: 89%   Direction: 270°W
Pressure: 30.12"   Gusts: NA
Location:  38.54°N, 90.62°W
Report Text: KSUS 241454Z 27006KT 8SM BKN021 14/12 A3012 RMK AO2 SLP199 T01390122 53007
Loading
Personal Weather Stations






























Interactive Weather Map
Tropical Storm Tracking
New forecast layout! Learn more

10-Day Weather Forecast

Advertisements
Track Severe Weather on mobile